Flights from Thursday September 3, 2026

The table below shows the detailed information of all trackers on Thursday Sep 3, 2026.

Ident Type CommentCommentDate
Phone 7K3LJI-5 Phone Phone FT8.FT4.AM.QRV Thu, 03 Sep 2026 05:40:33 +0900 3/9/2026 5:40 am
Jogger JA2XTV Jogger Jogger / Thu, 03 Sep 2026 05:40:33 +0900 3/9/2026 5:40 am
Jogger JA3DZM-E Jogger Jogger Thu, 03 Sep 2026 05:41:00 +0900 3/9/2026 5:41 am
Truck JF1TKU Truck Truck / Thu, 03 Sep 2026 05:41:56 +0900 3/9/2026 5:41 am
Phone JP7EBD-5 Phone Phone TG1130 QM08KJ Thu, 03 Sep 2026 05:54:36 +0900 3/9/2026 5:54 am
Jogger JF1CUX Jogger Jogger Thu, 03 Sep 2026 06:00:00 +0900 3/9/2026 6:00 am
Car JQ3IDS-1 Car Car / Thu, 03 Sep 2026 06:01:00 +0900 3/9/2026 6:01 am
Car JO1ACA-A Car Car / Thu, 03 Sep 2026 06:08:07 +0900 3/9/2026 6:08 am
No. WX Stn 7M4PUO-13 No. WX Stn No. WX Stn g...t...X970 /Bunkyo-ku Nezu Geiger Thu, 03 Sep 2026 06:09:22 +0900 3/9/2026 6:09 am
No. WX Stn JA0GTA-15 No. WX Stn No. WX Stn g...t...X970 /APRS Geiger mk2r3 TNX wakwak_koba Thu, 03 Sep 2026 06:09:25 +0900 3/9/2026 6:09 am
Jogger JA1ERM-A Jogger Jogger / Thu, 03 Sep 2026 06:10:16 +0900 3/9/2026 6:10 am
Jogger JG3AGB Jogger Jogger / Thu, 03 Sep 2026 06:15:09 +0900 3/9/2026 6:15 am
Car JA2HCX Car Car Thu, 03 Sep 2026 06:17:22 +0900 3/9/2026 6:17 am
Phone JG2KNO-10 Phone Phone https://aprsdroid.org/ Thu, 03 Sep 2026 06:17:34 +0900 3/9/2026 6:17 am
Jogger JP1IAR-A Jogger Jogger / Thu, 03 Sep 2026 06:20:31 +0900 3/9/2026 6:20 am
Mobile Satellite Station JG2KNO-9 Mobile Satellite Station Mobile Satellite Station https://aprsdroid.org/ Thu, 03 Sep 2026 06:23:42 +0900 3/9/2026 6:23 am
Car JR2EZQ-A Car Car / Thu, 03 Sep 2026 06:29:29 +0900 3/9/2026 6:29 am
Jogger JA0GUM-A Jogger Jogger / Thu, 03 Sep 2026 06:29:44 +0900 3/9/2026 6:29 am
Jogger XE3JR-9 Jogger Jogger Jαίμε!wv Thu, 03 Sep 2026 06:32:06 +0900 3/9/2026 6:32 am
Car JE6JDJ-A Car Car / Thu, 03 Sep 2026 06:33:09 +0900 3/9/2026 6:33 am
Phone JL1TJX-5 Phone Phone mail -> noto@shonan.net Thu, 03 Sep 2026 06:34:30 +0900 3/9/2026 6:34 am
Jogger JG1JZL-7 Jogger Jogger TXC:1 Temp: 30.50F Humid:66.05% Batt: 3.5V Thu, 03 Sep 2026 06:37:02 +0900 3/9/2026 6:37 am
Car JL7KGW-7 Car Car Thu, 03 Sep 2026 06:39:00 +0900 3/9/2026 6:39 am
Jogger JA1DRE-A Jogger Jogger D-STAR & 439.64 JR1WM Thu, 03 Sep 2026 06:41:00 +0900 3/9/2026 6:41 am
Jogger JO6BWP-7 Jogger Jogger / Thu, 03 Sep 2026 06:45:00 +0900 3/9/2026 6:45 am